sensor_id;sensor_type;location;lat;lon;timestamp;P1;durP1;ratioP1;P2;durP2;ratioP2
36597;SDS011;22607;49.550;11.940;2023-12-04T00:02:41;25.53;;;10.87;;
36597;SDS011;22607;49.550;11.940;2023-12-04T00:05:08;27.23;;;11.80;;
36597;SDS011;22607;49.550;11.940;2023-12-04T00:07:35;24.80;;;12.27;;
36597;SDS011;22607;49.550;11.940;2023-12-04T00:10:02;27.07;;;12.43;;
36597;SDS011;22607;49.550;11.940;2023-12-04T00:12:30;24.23;;;10.80;;
36597;SDS011;22607;49.550;11.940;2023-12-04T00:14:57;25.43;;;11.33;;
36597;SDS011;22607;49.550;11.940;2023-12-04T00:17:24;24.80;;;10.73;;
36597;SDS011;22607;49.550;11.940;2023-12-04T00:19:51;25.53;;;11.77;;
36597;SDS011;22607;49.550;11.940;2023-12-04T00:22:24;29.27;;;13.77;;
36597;SDS011;22607;49.550;11.940;2023-12-04T00:24:51;24.67;;;10.50;;
36597;SDS011;22607;49.550;11.940;2023-12-04T00:27:19;23.20;;;10.70;;
36597;SDS011;22607;49.550;11.940;2023-12-04T00:29:47;25.67;;;11.67;;
36597;SDS011;22607;49.550;11.940;2023-12-04T00:32:23;23.83;;;10.40;;
36597;SDS011;22607;49.550;11.940;2023-12-04T00:34:50;25.67;;;10.67;;
36597;SDS011;22607;49.550;11.940;2023-12-04T00:37:17;22.50;;;10.07;;
36597;SDS011;22607;49.550;11.940;2023-12-04T00:39:44;22.13;;;9.53;;
36597;SDS011;22607;49.550;11.940;2023-12-04T00:42:10;21.60;;;10.40;;
36597;SDS011;22607;49.550;11.940;2023-12-04T00:44:38;25.60;;;10.20;;
36597;SDS011;22607;49.550;11.940;2023-12-04T00:47:05;27.70;;;12.10;;
36597;SDS011;22607;49.550;11.940;2023-12-04T00:49:32;26.70;;;13.83;;
36597;SDS011;22607;49.550;11.940;2023-12-04T00:51:59;26.97;;;11.20;;
36597;SDS011;22607;49.550;11.940;2023-12-04T00:54:25;23.00;;;10.30;;
36597;SDS011;22607;49.550;11.940;2023-12-04T00:56:52;30.10;;;13.57;;
36597;SDS011;22607;49.550;11.940;2023-12-04T00:59:19;27.53;;;12.17;;
36597;SDS011;22607;49.550;11.940;2023-12-04T01:01:46;27.93;;;13.37;;
36597;SDS011;22607;49.550;11.940;2023-12-04T01:04:13;23.73;;;10.63;;
36597;SDS011;22607;49.550;11.940;2023-12-04T01:06:40;22.23;;;11.03;;
36597;SDS011;22607;49.550;11.940;2023-12-04T01:09:07;22.83;;;10.13;;
36597;SDS011;22607;49.550;11.940;2023-12-04T01:11:33;25.83;;;11.53;;
36597;SDS011;22607;49.550;11.940;2023-12-04T01:14:00;30.20;;;13.83;;
36597;SDS011;22607;49.550;11.940;2023-12-04T01:16:27;28.20;;;11.87;;
36597;SDS011;22607;49.550;11.940;2023-12-04T01:18:55;23.20;;;10.03;;
36597;SDS011;22607;49.550;11.940;2023-12-04T01:21:22;22.80;;;10.27;;
36597;SDS011;22607;49.550;11.940;2023-12-04T01:23:49;24.93;;;11.47;;
36597;SDS011;22607;49.550;11.940;2023-12-04T01:26:16;21.60;;;11.03;;
36597;SDS011;22607;49.550;11.940;2023-12-04T01:28:42;25.93;;;11.83;;
36597;SDS011;22607;49.550;11.940;2023-12-04T01:31:11;28.77;;;13.17;;
36597;SDS011;22607;49.550;11.940;2023-12-04T01:33:38;23.60;;;10.07;;
36597;SDS011;22607;49.550;11.940;2023-12-04T01:36:05;25.10;;;11.80;;
36597;SDS011;22607;49.550;11.940;2023-12-04T01:38:32;23.20;;;10.27;;
36597;SDS011;22607;49.550;11.940;2023-12-04T01:41:06;29.53;;;13.20;;
36597;SDS011;22607;49.550;11.940;2023-12-04T01:43:33;26.90;;;11.27;;
36597;SDS011;22607;49.550;11.940;2023-12-04T01:46:10;29.10;;;12.43;;
36597;SDS011;22607;49.550;11.940;2023-12-04T01:48:37;24.57;;;11.03;;
36597;SDS011;22607;49.550;11.940;2023-12-04T01:51:19;24.93;;;11.13;;
36597;SDS011;22607;49.550;11.940;2023-12-04T01:53:47;22.47;;;9.13;;
36597;SDS011;22607;49.550;11.940;2023-12-04T01:56:14;25.57;;;11.23;;
36597;SDS011;22607;49.550;11.940;2023-12-04T01:58:42;23.07;;;11.13;;
36597;SDS011;22607;49.550;11.940;2023-12-04T02:01:09;22.00;;;9.83;;
36597;SDS011;22607;49.550;11.940;2023-12-04T02:03:37;26.83;;;12.37;;
36597;SDS011;22607;49.550;11.940;2023-12-04T02:06:04;24.83;;;11.30;;
36597;SDS011;22607;49.550;11.940;2023-12-04T02:08:32;24.47;;;10.13;;
36597;SDS011;22607;49.550;11.940;2023-12-04T02:11:05;22.97;;;11.00;;
36597;SDS011;22607;49.550;11.940;2023-12-04T02:13:32;21.07;;;10.10;;
36597;SDS011;22607;49.550;11.940;2023-12-04T02:16:02;23.23;;;9.93;;
36597;SDS011;22607;49.550;11.940;2023-12-04T02:18:33;23.03;;;10.63;;
36597;SDS011;22607;49.550;11.940;2023-12-04T02:21:02;25.73;;;10.40;;
36597;SDS011;22607;49.550;11.940;2023-12-04T02:23:29;24.83;;;10.60;;
36597;SDS011;22607;49.550;11.940;2023-12-04T02:25:59;20.37;;;9.23;;
36597;SDS011;22607;49.550;11.940;2023-12-04T02:28:32;24.03;;;11.10;;
36597;SDS011;22607;49.550;11.940;2023-12-04T02:31:03;23.77;;;11.23;;
36597;SDS011;22607;49.550;11.940;2023-12-04T02:33:31;21.03;;;9.37;;
36597;SDS011;22607;49.550;11.940;2023-12-04T02:36:02;21.90;;;9.53;;
36597;SDS011;22607;49.550;11.940;2023-12-04T02:38:31;25.67;;;11.10;;
36597;SDS011;22607;49.550;11.940;2023-12-04T02:40:59;23.83;;;10.77;;
36597;SDS011;22607;49.550;11.940;2023-12-04T02:43:27;26.07;;;11.57;;
36597;SDS011;22607;49.550;11.940;2023-12-04T02:45:54;22.70;;;9.90;;
36597;SDS011;22607;49.550;11.940;2023-12-04T02:48:20;23.97;;;12.07;;
36597;SDS011;22607;49.550;11.940;2023-12-04T02:50:48;26.90;;;11.27;;
36597;SDS011;22607;49.550;11.940;2023-12-04T02:53:16;23.77;;;10.83;;
36597;SDS011;22607;49.550;11.940;2023-12-04T02:55:43;24.23;;;10.33;;
36597;SDS011;22607;49.550;11.940;2023-12-04T02:58:10;21.80;;;10.53;;
36597;SDS011;22607;49.550;11.940;2023-12-04T03:03:13;22.80;;;9.97;;
36597;SDS011;22607;49.550;11.940;2023-12-04T03:05:39;21.93;;;9.77;;
36597;SDS011;22607;49.550;11.940;2023-12-04T03:08:07;26.87;;;12.63;;
36597;SDS011;22607;49.550;11.940;2023-12-04T03:10:34;22.37;;;9.70;;
36597;SDS011;22607;49.550;11.940;2023-12-04T03:13:01;22.83;;;10.40;;
36597;SDS011;22607;49.550;11.940;2023-12-04T03:15:28;49.23;;;20.73;;
36597;SDS011;22607;49.550;11.940;2023-12-04T03:17:58;76.53;;;31.03;;
36597;SDS011;22607;49.550;11.940;2023-12-04T03:20:26;76.50;;;31.23;;
36597;SDS011;22607;49.550;11.940;2023-12-04T03:22:57;116.83;;;47.27;;
36597;SDS011;22607;49.550;11.940;2023-12-04T03:25:25;114.50;;;42.10;;
36597;SDS011;22607;49.550;11.940;2023-12-04T03:27:52;82.47;;;32.90;;
36597;SDS011;22607;49.550;11.940;2023-12-04T03:30:19;53.47;;;21.63;;
36597;SDS011;22607;49.550;11.940;2023-12-04T03:32:46;47.43;;;19.50;;
36597;SDS011;22607;49.550;11.940;2023-12-04T03:35:13;36.37;;;15.43;;
36597;SDS011;22607;49.550;11.940;2023-12-04T03:37:40;48.97;;;18.73;;
36597;SDS011;22607;49.550;11.940;2023-12-04T03:40:11;56.97;;;23.17;;
36597;SDS011;22607;49.550;11.940;2023-12-04T03:42:38;56.17;;;22.20;;
36597;SDS011;22607;49.550;11.940;2023-12-04T03:45:05;44.03;;;18.03;;
36597;SDS011;22607;49.550;11.940;2023-12-04T03:47:32;30.83;;;13.73;;
36597;SDS011;22607;49.550;11.940;2023-12-04T03:50:00;30.63;;;14.00;;
36597;SDS011;22607;49.550;11.940;2023-12-04T03:52:27;31.67;;;14.60;;
36597;SDS011;22607;49.550;11.940;2023-12-04T03:54:53;32.13;;;14.03;;
36597;SDS011;22607;49.550;11.940;2023-12-04T03:57:22;31.93;;;13.83;;
36597;SDS011;22607;49.550;11.940;2023-12-04T03:59:49;32.50;;;14.23;;
36597;SDS011;22607;49.550;11.940;2023-12-04T04:02:33;28.33;;;12.23;;
36597;SDS011;22607;49.550;11.940;2023-12-04T04:05:00;26.60;;;12.30;;
36597;SDS011;22607;49.550;11.940;2023-12-04T04:07:27;27.77;;;12.47;;
36597;SDS011;22607;49.550;11.940;2023-12-04T04:09:54;24.13;;;10.87;;
36597;SDS011;22607;49.550;11.940;2023-12-04T04:12:21;23.93;;;10.63;;
36597;SDS011;22607;49.550;11.940;2023-12-04T04:14:48;26.63;;;12.93;;
36597;SDS011;22607;49.550;11.940;2023-12-04T04:17:15;25.43;;;11.27;;
36597;SDS011;22607;49.550;11.940;2023-12-04T04:19:41;26.03;;;11.53;;
36597;SDS011;22607;49.550;11.940;2023-12-04T04:22:10;26.97;;;11.77;;
36597;SDS011;22607;49.550;11.940;2023-12-04T04:24:38;27.60;;;12.73;;
36597;SDS011;22607;49.550;11.940;2023-12-04T04:27:05;29.00;;;11.63;;
36597;SDS011;22607;49.550;11.940;2023-12-04T04:29:32;26.97;;;12.07;;
36597;SDS011;22607;49.550;11.940;2023-12-04T04:31:59;24.03;;;11.37;;
36597;SDS011;22607;49.550;11.940;2023-12-04T04:34:26;26.70;;;11.27;;
36597;SDS011;22607;49.550;11.940;2023-12-04T04:36:53;22.27;;;9.73;;
36597;SDS011;22607;49.550;11.940;2023-12-04T04:39:20;25.73;;;11.37;;
36597;SDS011;22607;49.550;11.940;2023-12-04T04:41:47;23.80;;;9.97;;
36597;SDS011;22607;49.550;11.940;2023-12-04T04:44:14;23.73;;;9.83;;
36597;SDS011;22607;49.550;11.940;2023-12-04T04:46:42;24.40;;;10.97;;
36597;SDS011;22607;49.550;11.940;2023-12-04T04:49:11;23.70;;;10.53;;
36597;SDS011;22607;49.550;11.940;2023-12-04T04:51:41;23.73;;;9.90;;
36597;SDS011;22607;49.550;11.940;2023-12-04T04:54:08;24.37;;;10.87;;
36597;SDS011;22607;49.550;11.940;2023-12-04T04:56:35;25.80;;;10.50;;
36597;SDS011;22607;49.550;11.940;2023-12-04T04:59:12;24.63;;;10.97;;
36597;SDS011;22607;49.550;11.940;2023-12-04T05:04:12;23.10;;;10.67;;
36597;SDS011;22607;49.550;11.940;2023-12-04T05:06:41;23.13;;;9.80;;
36597;SDS011;22607;49.550;11.940;2023-12-04T05:09:08;21.70;;;9.40;;
36597;SDS011;22607;49.550;11.940;2023-12-04T05:11:35;23.63;;;11.17;;
36597;SDS011;22607;49.550;11.940;2023-12-04T05:14:02;22.33;;;10.90;;
36597;SDS011;22607;49.550;11.940;2023-12-04T05:16:32;24.70;;;11.87;;
36597;SDS011;22607;49.550;11.940;2023-12-04T05:19:05;23.33;;;10.33;;
36597;SDS011;22607;49.550;11.940;2023-12-04T05:21:32;23.20;;;10.30;;
36597;SDS011;22607;49.550;11.940;2023-12-04T05:24:07;23.60;;;11.17;;
36597;SDS011;22607;49.550;11.940;2023-12-04T05:26:48;24.87;;;10.33;;
36597;SDS011;22607;49.550;11.940;2023-12-04T05:29:17;25.35;;;11.40;;
36597;SDS011;22607;49.550;11.940;2023-12-04T05:31:44;27.20;;;12.73;;
36597;SDS011;22607;49.550;11.940;2023-12-04T05:34:11;23.00;;;10.53;;
36597;SDS011;22607;49.550;11.940;2023-12-04T05:36:38;25.40;;;11.43;;
36597;SDS011;22607;49.550;11.940;2023-12-04T05:39:06;27.27;;;11.03;;
36597;SDS011;22607;49.550;11.940;2023-12-04T05:41:33;24.10;;;10.53;;
36597;SDS011;22607;49.550;11.940;2023-12-04T05:44:08;26.87;;;11.53;;
36597;SDS011;22607;49.550;11.940;2023-12-04T05:46:35;28.30;;;12.23;;
36597;SDS011;22607;49.550;11.940;2023-12-04T05:49:04;28.07;;;11.67;;
36597;SDS011;22607;49.550;11.940;2023-12-04T05:51:31;28.37;;;12.70;;
36597;SDS011;22607;49.550;11.940;2023-12-04T05:54:11;29.70;;;13.93;;
36597;SDS011;22607;49.550;11.940;2023-12-04T05:56:38;27.23;;;10.80;;
36597;SDS011;22607;49.550;11.940;2023-12-04T05:59:20;28.77;;;11.57;;
36597;SDS011;22607;49.550;11.940;2023-12-04T06:01:47;25.60;;;11.63;;
36597;SDS011;22607;49.550;11.940;2023-12-04T06:04:15;24.13;;;11.43;;
36597;SDS011;22607;49.550;11.940;2023-12-04T06:06:41;27.83;;;11.97;;
36597;SDS011;22607;49.550;11.940;2023-12-04T06:09:08;27.10;;;11.70;;
36597;SDS011;22607;49.550;11.940;2023-12-04T06:11:35;28.17;;;13.47;;
36597;SDS011;22607;49.550;11.940;2023-12-04T06:14:01;26.97;;;11.77;;
36597;SDS011;22607;49.550;11.940;2023-12-04T06:16:28;25.07;;;11.10;;
36597;SDS011;22607;49.550;11.940;2023-12-04T06:19:03;26.90;;;11.73;;
36597;SDS011;22607;49.550;11.940;2023-12-04T06:21:31;22.43;;;9.70;;
36597;SDS011;22607;49.550;11.940;2023-12-04T06:24:05;25.27;;;12.40;;
36597;SDS011;22607;49.550;11.940;2023-12-04T06:26:35;44.23;;;23.03;;
36597;SDS011;22607;49.550;11.940;2023-12-04T06:29:06;34.10;;;18.43;;
36597;SDS011;22607;49.550;11.940;2023-12-04T06:31:33;26.20;;;12.43;;
36597;SDS011;22607;49.550;11.940;2023-12-04T06:34:02;25.03;;;11.87;;
36597;SDS011;22607;49.550;11.940;2023-12-04T06:36:31;25.53;;;12.27;;
36597;SDS011;22607;49.550;11.940;2023-12-04T06:39:02;24.63;;;11.07;;
36597;SDS011;22607;49.550;11.940;2023-12-04T06:41:31;25.83;;;11.37;;
36597;SDS011;22607;49.550;11.940;2023-12-04T06:43:58;23.40;;;11.10;;
36597;SDS011;22607;49.550;11.940;2023-12-04T06:46:25;24.60;;;11.07;;
36597;SDS011;22607;49.550;11.940;2023-12-04T06:48:59;23.20;;;11.10;;
36597;SDS011;22607;49.550;11.940;2023-12-04T06:51:26;25.17;;;11.25;;
36597;SDS011;22607;49.550;11.940;2023-12-04T06:53:55;24.60;;;12.33;;
36597;SDS011;22607;49.550;11.940;2023-12-04T06:56:22;25.87;;;10.47;;
36597;SDS011;22607;49.550;11.940;2023-12-04T06:58:49;23.60;;;11.03;;
36597;SDS011;22607;49.550;11.940;2023-12-04T07:01:17;22.00;;;9.63;;
36597;SDS011;22607;49.550;11.940;2023-12-04T07:03:44;22.20;;;10.13;;
36597;SDS011;22607;49.550;11.940;2023-12-04T07:06:12;20.03;;;9.37;;
36597;SDS011;22607;49.550;11.940;2023-12-04T07:08:46;21.87;;;9.40;;
36597;SDS011;22607;49.550;11.940;2023-12-04T07:11:14;24.07;;;10.87;;
36597;SDS011;22607;49.550;11.940;2023-12-04T07:13:41;23.77;;;10.63;;
36597;SDS011;22607;49.550;11.940;2023-12-04T07:16:20;21.70;;;9.73;;
36597;SDS011;22607;49.550;11.940;2023-12-04T07:18:47;22.47;;;9.80;;
36597;SDS011;22607;49.550;11.940;2023-12-04T07:21:21;24.10;;;11.57;;
36597;SDS011;22607;49.550;11.940;2023-12-04T07:23:48;25.57;;;11.03;;
36597;SDS011;22607;49.550;11.940;2023-12-04T07:26:16;23.37;;;10.50;;
36597;SDS011;22607;49.550;11.940;2023-12-04T07:28:43;24.13;;;11.57;;
36597;SDS011;22607;49.550;11.940;2023-12-04T07:31:11;23.33;;;10.77;;
36597;SDS011;22607;49.550;11.940;2023-12-04T07:33:39;24.00;;;11.07;;
36597;SDS011;22607;49.550;11.940;2023-12-04T07:36:06;27.57;;;13.40;;
36597;SDS011;22607;49.550;11.940;2023-12-04T07:38:33;25.77;;;11.20;;
36597;SDS011;22607;49.550;11.940;2023-12-04T07:41:00;25.23;;;11.57;;
36597;SDS011;22607;49.550;11.940;2023-12-04T07:43:28;24.97;;;11.57;;
36597;SDS011;22607;49.550;11.940;2023-12-04T07:45:55;21.30;;;9.87;;
36597;SDS011;22607;49.550;11.940;2023-12-04T07:48:23;23.53;;;10.73;;
36597;SDS011;22607;49.550;11.940;2023-12-04T07:50:50;23.03;;;10.63;;
36597;SDS011;22607;49.550;11.940;2023-12-04T07:53:17;22.33;;;10.23;;
36597;SDS011;22607;49.550;11.940;2023-12-04T07:55:43;24.13;;;10.67;;
36597;SDS011;22607;49.550;11.940;2023-12-04T07:58:10;21.77;;;9.57;;
36597;SDS011;22607;49.550;11.940;2023-12-04T08:00:37;23.30;;;9.80;;
36597;SDS011;22607;49.550;11.940;2023-12-04T08:03:04;27.17;;;11.47;;
36597;SDS011;22607;49.550;11.940;2023-12-04T08:05:31;23.73;;;10.57;;
36597;SDS011;22607;49.550;11.940;2023-12-04T08:07:59;22.83;;;10.13;;
36597;SDS011;22607;49.550;11.940;2023-12-04T08:10:26;21.77;;;10.37;;
36597;SDS011;22607;49.550;11.940;2023-12-04T08:12:53;20.40;;;9.40;;
36597;SDS011;22607;49.550;11.940;2023-12-04T08:15:20;22.23;;;9.57;;
36597;SDS011;22607;49.550;11.940;2023-12-04T08:17:47;23.27;;;10.20;;
36597;SDS011;22607;49.550;11.940;2023-12-04T08:20:15;24.00;;;11.23;;
36597;SDS011;22607;49.550;11.940;2023-12-04T08:22:55;23.23;;;11.15;;
36597;SDS011;22607;49.550;11.940;2023-12-04T08:25:22;20.63;;;8.77;;
36597;SDS011;22607;49.550;11.940;2023-12-04T08:27:49;19.73;;;9.33;;
36597;SDS011;22607;49.550;11.940;2023-12-04T08:30:17;20.87;;;9.13;;
36597;SDS011;22607;49.550;11.940;2023-12-04T08:32:45;20.10;;;9.20;;
36597;SDS011;22607;49.550;11.940;2023-12-04T08:35:16;19.73;;;9.33;;
36597;SDS011;22607;49.550;11.940;2023-12-04T08:37:45;23.57;;;10.47;;
36597;SDS011;22607;49.550;11.940;2023-12-04T08:40:13;21.57;;;9.77;;
36597;SDS011;22607;49.550;11.940;2023-12-04T08:42:47;21.27;;;10.53;;
36597;SDS011;22607;49.550;11.940;2023-12-04T08:45:14;22.83;;;10.53;;
36597;SDS011;22607;49.550;11.940;2023-12-04T08:47:42;17.97;;;8.20;;
36597;SDS011;22607;49.550;11.940;2023-12-04T08:50:21;18.10;;;9.00;;
36597;SDS011;22607;49.550;11.940;2023-12-04T08:52:48;21.17;;;8.90;;
36597;SDS011;22607;49.550;11.940;2023-12-04T08:55:15;19.20;;;8.90;;
36597;SDS011;22607;49.550;11.940;2023-12-04T08:57:42;23.90;;;10.30;;
36597;SDS011;22607;49.550;11.940;2023-12-04T09:00:09;20.37;;;9.30;;
36597;SDS011;22607;49.550;11.940;2023-12-04T09:02:36;20.87;;;9.93;;
36597;SDS011;22607;49.550;11.940;2023-12-04T09:05:14;18.83;;;8.73;;
36597;SDS011;22607;49.550;11.940;2023-12-04T09:07:58;19.07;;;8.67;;
36597;SDS011;22607;49.550;11.940;2023-12-04T09:10:45;19.13;;;8.50;;
36597;SDS011;22607;49.550;11.940;2023-12-04T09:13:37;18.47;;;8.93;;
36597;SDS011;22607;49.550;11.940;2023-12-04T09:16:05;21.77;;;10.05;;
36597;SDS011;22607;49.550;11.940;2023-12-04T09:18:32;20.23;;;9.97;;
36597;SDS011;22607;49.550;11.940;2023-12-04T09:20:59;18.60;;;9.00;;
36597;SDS011;22607;49.550;11.940;2023-12-04T09:23:26;18.23;;;8.40;;
36597;SDS011;22607;49.550;11.940;2023-12-04T09:25:54;21.17;;;8.93;;
36597;SDS011;22607;49.550;11.940;2023-12-04T09:28:24;19.73;;;9.20;;
36597;SDS011;22607;49.550;11.940;2023-12-04T09:30:51;20.73;;;9.57;;
36597;SDS011;22607;49.550;11.940;2023-12-04T09:33:18;20.93;;;9.93;;
36597;SDS011;22607;49.550;11.940;2023-12-04T09:35:47;22.43;;;10.13;;
36597;SDS011;22607;49.550;11.940;2023-12-04T09:38:14;18.23;;;9.60;;
36597;SDS011;22607;49.550;11.940;2023-12-04T09:40:41;20.03;;;8.87;;
36597;SDS011;22607;49.550;11.940;2023-12-04T09:43:09;18.40;;;8.10;;
36597;SDS011;22607;49.550;11.940;2023-12-04T09:45:36;16.80;;;7.50;;
36597;SDS011;22607;49.550;11.940;2023-12-04T09:48:05;20.00;;;8.93;;
36597;SDS011;22607;49.550;11.940;2023-12-04T09:50:33;21.23;;;9.10;;
36597;SDS011;22607;49.550;11.940;2023-12-04T09:53:01;15.37;;;7.27;;
36597;SDS011;22607;49.550;11.940;2023-12-04T09:55:30;19.47;;;9.37;;
36597;SDS011;22607;49.550;11.940;2023-12-04T09:57:57;20.27;;;9.37;;
36597;SDS011;22607;49.550;11.940;2023-12-04T10:00:24;18.43;;;9.23;;
36597;SDS011;22607;49.550;11.940;2023-12-04T10:02:52;18.97;;;9.00;;
36597;SDS011;22607;49.550;11.940;2023-12-04T10:05:19;19.23;;;8.53;;
36597;SDS011;22607;49.550;11.940;2023-12-04T10:07:49;19.48;;;8.73;;
36597;SDS011;22607;49.550;11.940;2023-12-04T10:10:18;20.20;;;9.25;;
36597;SDS011;22607;49.550;11.940;2023-12-04T10:12:45;17.92;;;8.50;;
36597;SDS011;22607;49.550;11.940;2023-12-04T10:15:13;18.03;;;7.80;;
36597;SDS011;22607;49.550;11.940;2023-12-04T10:17:40;20.52;;;8.80;;
36597;SDS011;22607;49.550;11.940;2023-12-04T10:20:11;20.58;;;9.18;;
36597;SDS011;22607;49.550;11.940;2023-12-04T10:22:39;16.38;;;7.75;;
36597;SDS011;22607;49.550;11.940;2023-12-04T10:25:17;14.98;;;7.90;;
36597;SDS011;22607;49.550;11.940;2023-12-04T10:27:46;16.83;;;8.50;;
36597;SDS011;22607;49.550;11.940;2023-12-04T10:30:23;15.68;;;7.00;;
36597;SDS011;22607;49.550;11.940;2023-12-04T10:33:05;16.77;;;7.60;;
36597;SDS011;22607;49.550;11.940;2023-12-04T10:35:35;15.95;;;7.10;;
36597;SDS011;22607;49.550;11.940;2023-12-04T10:38:04;15.45;;;6.82;;
36597;SDS011;22607;49.550;11.940;2023-12-04T10:40:34;17.00;;;7.00;;
36597;SDS011;22607;49.550;11.940;2023-12-04T10:45:55;14.68;;;6.53;;
36597;SDS011;22607;49.550;11.940;2023-12-04T10:48:23;15.57;;;7.05;;
36597;SDS011;22607;49.550;11.940;2023-12-04T10:50:51;16.88;;;7.38;;
36597;SDS011;22607;49.550;11.940;2023-12-04T10:53:19;14.57;;;6.18;;
36597;SDS011;22607;49.550;11.940;2023-12-04T10:55:46;16.25;;;6.40;;
36597;SDS011;22607;49.550;11.940;2023-12-04T10:58:15;14.30;;;5.93;;
36597;SDS011;22607;49.550;11.940;2023-12-04T11:00:47;14.38;;;6.22;;
36597;SDS011;22607;49.550;11.940;2023-12-04T11:06:07;16.17;;;6.63;;
36597;SDS011;22607;49.550;11.940;2023-12-04T11:11:10;26.33;;;13.02;;
36597;SDS011;22607;49.550;11.940;2023-12-04T11:13:41;21.15;;;9.15;;
36597;SDS011;22607;49.550;11.940;2023-12-04T11:16:17;18.00;;;8.77;;
36597;SDS011;22607;49.550;11.940;2023-12-04T11:18:58;17.77;;;7.95;;
36597;SDS011;22607;49.550;11.940;2023-12-04T11:21:31;17.35;;;7.68;;
36597;SDS011;22607;49.550;11.940;2023-12-04T11:24:00;18.80;;;7.30;;
36597;SDS011;22607;49.550;11.940;2023-12-04T11:26:28;14.30;;;6.85;;
36597;SDS011;22607;49.550;11.940;2023-12-04T11:28:55;19.08;;;8.60;;
36597;SDS011;22607;49.550;11.940;2023-12-04T11:31:22;17.60;;;7.95;;
36597;SDS011;22607;49.550;11.940;2023-12-04T11:33:50;16.30;;;6.72;;
36597;SDS011;22607;49.550;11.940;2023-12-04T11:36:16;14.45;;;6.68;;
36597;SDS011;22607;49.550;11.940;2023-12-04T11:38:46;14.82;;;7.05;;
36597;SDS011;22607;49.550;11.940;2023-12-04T11:41:19;14.90;;;7.38;;
36597;SDS011;22607;49.550;11.940;2023-12-04T11:43:52;17.35;;;7.75;;
36597;SDS011;22607;49.550;11.940;2023-12-04T11:46:23;14.98;;;6.53;;
36597;SDS011;22607;49.550;11.940;2023-12-04T11:48:56;15.43;;;6.65;;
36597;SDS011;22607;49.550;11.940;2023-12-04T11:52:07;17.50;;;7.88;;
36597;SDS011;22607;49.550;11.940;2023-12-04T11:54:19;12.82;;;5.63;;
36597;SDS011;22607;49.550;11.940;2023-12-04T12:02:41;15.95;;;7.40;;
36597;SDS011;22607;49.550;11.940;2023-12-04T12:05:37;16.75;;;7.47;;
36597;SDS011;22607;49.550;11.940;2023-12-04T12:08:09;17.10;;;7.75;;
36597;SDS011;22607;49.550;11.940;2023-12-04T12:10:35;16.35;;;7.35;;
36597;SDS011;22607;49.550;11.940;2023-12-04T12:13:03;14.85;;;6.00;;
36597;SDS011;22607;49.550;11.940;2023-12-04T12:15:31;14.55;;;6.82;;
36597;SDS011;22607;49.550;11.940;2023-12-04T12:17:59;16.00;;;6.60;;
36597;SDS011;22607;49.550;11.940;2023-12-04T12:20:26;16.20;;;7.35;;
36597;SDS011;22607;49.550;11.940;2023-12-04T12:22:53;17.10;;;7.57;;
36597;SDS011;22607;49.550;11.940;2023-12-04T12:25:21;15.70;;;6.75;;
36597;SDS011;22607;49.550;11.940;2023-12-04T12:27:50;17.65;;;8.07;;
36597;SDS011;22607;49.550;11.940;2023-12-04T12:30:17;14.23;;;6.75;;
36597;SDS011;22607;49.550;11.940;2023-12-04T12:32:43;16.00;;;6.75;;
36597;SDS011;22607;49.550;11.940;2023-12-04T12:35:10;13.55;;;5.90;;
36597;SDS011;22607;49.550;11.940;2023-12-04T12:37:44;17.60;;;7.47;;
36597;SDS011;22607;49.550;11.940;2023-12-04T12:40:11;15.50;;;7.18;;
36597;SDS011;22607;49.550;11.940;2023-12-04T12:42:40;18.55;;;7.97;;
36597;SDS011;22607;49.550;11.940;2023-12-04T12:45:10;15.27;;;7.25;;
36597;SDS011;22607;49.550;11.940;2023-12-04T12:47:42;18.15;;;8.43;;
36597;SDS011;22607;49.550;11.940;2023-12-04T12:50:10;15.35;;;7.40;;
36597;SDS011;22607;49.550;11.940;2023-12-04T12:52:40;16.75;;;7.75;;
36597;SDS011;22607;49.550;11.940;2023-12-04T12:55:07;15.95;;;7.93;;
36597;SDS011;22607;49.550;11.940;2023-12-04T12:57:34;18.27;;;7.47;;
36597;SDS011;22607;49.550;11.940;2023-12-04T13:00:01;39.35;;;18.92;;
36597;SDS011;22607;49.550;11.940;2023-12-04T13:02:28;24.95;;;10.73;;
36597;SDS011;22607;49.550;11.940;2023-12-04T13:04:55;16.98;;;7.65;;
36597;SDS011;22607;49.550;11.940;2023-12-04T13:09:52;17.40;;;8.95;;
36597;SDS011;22607;49.550;11.940;2023-12-04T13:12:19;19.85;;;8.73;;
36597;SDS011;22607;49.550;11.940;2023-12-04T13:14:46;18.08;;;8.48;;
36597;SDS011;22607;49.550;11.940;2023-12-04T13:17:12;18.40;;;8.75;;
36597;SDS011;22607;49.550;11.940;2023-12-04T13:19:39;20.23;;;9.93;;
36597;SDS011;22607;49.550;11.940;2023-12-04T13:22:06;18.60;;;8.30;;
36597;SDS011;22607;49.550;11.940;2023-12-04T13:24:33;21.00;;;8.68;;
36597;SDS011;22607;49.550;11.940;2023-12-04T13:27:00;20.60;;;7.85;;
36597;SDS011;22607;49.550;11.940;2023-12-04T13:29:26;19.20;;;8.68;;
36597;SDS011;22607;49.550;11.940;2023-12-04T13:31:53;19.25;;;8.25;;
36597;SDS011;22607;49.550;11.940;2023-12-04T13:34:20;19.40;;;9.60;;
36597;SDS011;22607;49.550;11.940;2023-12-04T13:36:49;17.98;;;8.70;;
36597;SDS011;22607;49.550;11.940;2023-12-04T13:39:15;19.70;;;8.48;;
36597;SDS011;22607;49.550;11.940;2023-12-04T13:42:08;18.75;;;9.02;;
36597;SDS011;22607;49.550;11.940;2023-12-04T13:44:54;17.90;;;6.90;;
36597;SDS011;22607;49.550;11.940;2023-12-04T13:47:21;16.35;;;7.07;;
36597;SDS011;22607;49.550;11.940;2023-12-04T13:49:47;17.35;;;8.32;;
36597;SDS011;22607;49.550;11.940;2023-12-04T13:52:15;18.95;;;7.85;;
36597;SDS011;22607;49.550;11.940;2023-12-04T13:54:45;18.55;;;7.40;;
36597;SDS011;22607;49.550;11.940;2023-12-04T13:57:14;16.98;;;7.22;;
36597;SDS011;22607;49.550;11.940;2023-12-04T13:59:47;18.30;;;6.93;;
36597;SDS011;22607;49.550;11.940;2023-12-04T14:02:14;16.42;;;6.68;;
36597;SDS011;22607;49.550;11.940;2023-12-04T14:04:45;16.08;;;7.22;;
36597;SDS011;22607;49.550;11.940;2023-12-04T14:07:12;18.02;;;8.35;;
36597;SDS011;22607;49.550;11.940;2023-12-04T14:09:40;23.27;;;11.27;;
36597;SDS011;22607;49.550;11.940;2023-12-04T14:12:07;20.85;;;9.18;;
36597;SDS011;22607;49.550;11.940;2023-12-04T14:14:34;23.08;;;10.10;;
36597;SDS011;22607;49.550;11.940;2023-12-04T14:17:01;26.45;;;14.02;;
36597;SDS011;22607;49.550;11.940;2023-12-04T14:19:30;21.70;;;9.98;;
36597;SDS011;22607;49.550;11.940;2023-12-04T14:21:57;17.92;;;7.28;;
36597;SDS011;22607;49.550;11.940;2023-12-04T14:24:24;18.15;;;7.47;;
36597;SDS011;22607;49.550;11.940;2023-12-04T14:26:53;20.98;;;9.93;;
36597;SDS011;22607;49.550;11.940;2023-12-04T14:29:22;20.77;;;9.30;;
36597;SDS011;22607;49.550;11.940;2023-12-04T14:31:50;20.55;;;9.23;;
36597;SDS011;22607;49.550;11.940;2023-12-04T14:34:17;19.65;;;8.32;;
36597;SDS011;22607;49.550;11.940;2023-12-04T14:36:44;20.45;;;8.18;;
36597;SDS011;22607;49.550;11.940;2023-12-04T14:39:12;18.95;;;8.40;;
36597;SDS011;22607;49.550;11.940;2023-12-04T14:41:39;19.52;;;9.10;;
36597;SDS011;22607;49.550;11.940;2023-12-04T14:44:05;19.45;;;8.35;;
36597;SDS011;22607;49.550;11.940;2023-12-04T14:46:32;22.38;;;9.82;;